Strategic Regional Coastal Monitoring Programmes

Real time data

« Return to map for other wave, tide and met stations.
See WAP enabled page

Note that these are real-time data and are not quality-controlled.

Brighton

  Tides       Weather       Latest       Information      
Display to date:
Prev
Range
Next
calender   
left arrow
right arrow

Latest Met Data:
Time (GMT) Air Pressure (mb) Wind Speed (knots) Wind Speed (ms-1) Gust Speed (knots) Gust Speed (ms-1) Wind direction (°) Air Temperature (°C) Rainfall (mm) Erythemal Radiation (W/m2) UV Index Relative Humidity (%)
01-11-2014 05:39 1013.1 10.4 5.2 13.6 6.8 210 16.2 0 - - 90.7

Time (GMT) Air Pressure (mb) Wind Speed (knots) Wind Speed (ms-1) Gust Speed (knots) Gust Speed (ms-1) Wind direction (°) Air Temperature (°C) Rainfall (mm) Erythemal Radiation (W/m2) UV Index Relative Humidity (%)
30-04-2012 10:50 1010.9 7.4 3.7 12.1 6 110 12.3 0 - - 58.9
30-04-2012 10:49 1010.8 12.1 6 16.5 8.3 110 12.3 0 - - 59
30-04-2012 10:40 1010.8 13.4 6.7 18.1 9.1 110 12.1 0 - - 59
30-04-2012 10:39 1010.9 13.4 6.7 18.1 9.1 110 12.1 0 - - 59
30-04-2012 10:30 1010.8 13 6.5 17.1 8.6 110 11.9 0 - - 61.6
30-04-2012 10:29 1010.7 12.9 6.5 17.1 8.6 110 11.8 0 - - 61.3
30-04-2012 10:20 1011.1 13.1 6.5 17.9 9 110 11.4 0 - - 69.7
30-04-2012 10:19 1010.9 13.1 6.5 17.9 9 110 11.3 0 - - 69.8
30-04-2012 10:10 1011.2 13.1 6.5 18.7 9.4 110 11.6 0 - - 68.2
30-04-2012 10:09 1011.1 13.1 6.5 18.7 9.4 110 11.6 0 - - 68
30-04-2012 10:00 1011.2 14.1 7 21.3 10.6 100 11.3 0 - - 67
30-04-2012 09:59 1011.2 14.1 7.1 21.3 10.6 100 11.3 0 - - 67
30-04-2012 09:50 1011.1 12.7 6.4 19 9.5 110 11.1 0 - - 68.4
30-04-2012 09:49 1011.1 12.7 6.4 19 9.5 110 11.1 0 - - 68.2
30-04-2012 09:40 1011.1 12.2 6.1 15.9 8 100 11.3 0 - - 67.8
30-04-2012 09:39 1011.1 12.2 6.1 15.9 8 100 11.2 0 - - 67.8
30-04-2012 09:30 1011.1 13.8 6.9 20.7 10.3 100 11 0 - - 70.3
30-04-2012 09:29 1011.1 13.9 6.9 20.7 10.3 100 11 0 - - 70.1
30-04-2012 09:20 1011.2 13.3 6.7 17.1 8.6 100 11 0 - - 71.2
30-04-2012 09:19 1011.2 13.3 6.6 17.1 8.6 100 11 0 - - 71.3
30-04-2012 09:10 1011.2 14.7 7.3 20.1 10 100 10.9 0 - - 73.1
30-04-2012 09:09 1011.1 14.7 7.4 20.1 10 100 10.9 0 - - 73
30-04-2012 09:00 1011.1 16 8 21.7 10.9 100 10.9 0 - - 74.4
30-04-2012 08:59 1010.9 16 8 21.7 10.9 100 10.8 0 - - 74.3
30-04-2012 08:50 1010.8 13.3 6.7 18.9 9.5 100 10.7 0 - - 76
30-04-2012 08:49 1010.8 13.3 6.7 18.9 9.5 100 10.7 0 - - 75.9
30-04-2012 08:40 1010.8 14 7 17.4 8.7 100 10.4 0 - - 78.3
30-04-2012 08:39 1010.7 14 7 17.4 8.7 100 10.4 0 - - 78.3
30-04-2012 08:30 1010.8 14.3 7.2 17.8 8.9 100 10.2 0 - - 77.9
30-04-2012 08:29 1010.8 14.3 7.2 17.8 8.9 100 10.2 0 - - 78
30-04-2012 08:20 1010.8 13.6 6.8 19.1 9.6 110 10.2 0 - - 79
30-04-2012 08:19 1010.9 13.6 6.8 19.1 9.6 110 10.2 0 - - 79
30-04-2012 08:10 1010.8 11.3 5.7 15.9 8 110 10.4 0 - - 78.7
30-04-2012 08:09 1010.8 11.3 5.6 15.9 8 110 10.4 0 - - 78.6
30-04-2012 08:00 1010.7 11.9 6 16.1 8.1 110 10.3 0 - - 78.6
30-04-2012 07:59 1010.7 11.9 6 16.1 8.1 110 10.2 0 - - 78.5
30-04-2012 07:50 1010.6 10.9 5.5 16.4 8.2 110 10.3 0 - - 78.1
30-04-2012 07:49 1010.6 10.9 5.5 16.4 8.2 110 10.3 0 - - 78.1
30-04-2012 07:40 1010.5 12.9 6.5 16.7 8.4 110 10.2 0 - - 78
30-04-2012 07:39 1010.5 12.9 6.5 16.7 8.4 120 10.2 0 - - 78
30-04-2012 07:30 1010.4 12.7 6.3 16.4 8.2 120 10.2 0 - - 78
30-04-2012 07:29 1010.5 12.6 6.3 16.4 8.2 120 10.3 0 - - 78
30-04-2012 07:20 1010.3 11.8 5.9 15.9 8 120 10.2 0 - - 77.8
30-04-2012 07:19 1010.2 11.8 5.9 15.9 8 120 10.2 0 - - 77.8
30-04-2012 07:10 1009.9 12.6 6.3 16.2 8.1 120 10.2 0 - - 77.6
30-04-2012 07:09 1009.9 12.5 6.3 16.2 8.1 120 10.2 0 - - 77.6
30-04-2012 07:00 1009.9 12.8 6.4 18.2 9.1 120 10.2 0 - - 76.9
30-04-2012 06:59 1009.9 12.8 6.4 18.2 9.1 120 10.1 0 - - 76.8
30-04-2012 06:50 1009.9 12.2 6.1 16.8 8.4 120 10.1 0 - - 78.1
30-04-2012 06:49 1009.9 12.2 6.1 16.8 8.4 120 10.1 0 - - 78
30-04-2012 06:40 1009.9 13 6.5 18.9 9.5 120 10 0 - - 78.5
30-04-2012 06:39 1009.9 13 6.5 18.9 9.5 120 10 0 - - 78.6
30-04-2012 06:30 1009.6 13.4 6.7 17 8.5 120 10 0 - - 79
30-04-2012 06:29 1009.7 13.4 6.7 17 8.5 120 10 0 - - 79
30-04-2012 06:20 1009.5 13.9 7 19 9.5 120 9.9 0 - - 79.4
30-04-2012 06:19 1009.5 13.9 7 19 9.5 120 9.9 0 - - 79.4
30-04-2012 06:10 1009.4 13.7 6.9 17.4 8.7 120 9.9 0 - - 80.3
30-04-2012 06:09 1009.5 13.7 6.9 17.4 8.7 120 9.9 0 - - 80.2
30-04-2012 06:00 1009.3 13.5 6.8 16.5 8.3 120 9.9 0 - - 79.6
30-04-2012 05:59 1009.3 13.5 6.8 16.5 8.3 120 9.9 0 - - 79.6
30-04-2012 05:50 1009 13.7 6.9 16.4 8.2 120 9.8 0 - - 78.3
30-04-2012 05:49 1008.9 13.8 6.9 16.4 8.2 120 9.8 0 - - 78.3
30-04-2012 05:40 1008.8 15 7.5 19.2 9.6 120 9.8 0 - - 78
30-04-2012 05:39 1008.7 15 7.5 19.2 9.6 120 9.8 0 - - 78
30-04-2012 05:30 1008.6 15.1 7.5 19.9 9.9 120 9.7 0 - - 79.7
30-04-2012 05:29 1008.6 15.1 7.5 19.9 9.9 120 9.7 0 - - 79.6
30-04-2012 05:20 1008.5 14.7 7.4 19.6 9.8 120 9.6 0 - - 80
30-04-2012 05:19 1008.5 14.7 7.4 19.6 9.8 120 9.6 0 - - 80
30-04-2012 05:10 1008.3 14.6 7.3 19.2 9.6 120 9.5 0 - - 79.4
30-04-2012 05:09 1008.3 14.6 7.3 19.2 9.6 120 9.5 0 - - 79.4
30-04-2012 05:00 1008.1 14.7 7.3 19.7 9.9 120 9.5 0 - - 79.6
30-04-2012 04:59 1008.2 14.7 7.3 19.7 9.9 120 9.5 0 - - 79.5
30-04-2012 04:50 1008.1 14.9 7.5 19.7 9.9 120 9.5 0 - - 79.2
30-04-2012 04:49 1008.1 15 7.5 19.7 9.9 120 9.5 0 - - 79.4
30-04-2012 04:40 1008.2 14.7 7.3 19.3 9.7 120 9.5 0 - - 79
30-04-2012 04:39 1008.1 14.6 7.3 19.3 9.7 120 9.5 0 - - 79
30-04-2012 04:30 1008 14.9 7.4 20.1 10 120 9.5 0 - - 78.6
30-04-2012 04:29 1008.1 14.8 7.4 20.1 10 120 9.5 0 - - 78.6
30-04-2012 04:20 1008 15.9 7.9 21.7 10.8 120 9.6 0 - - 77.6
30-04-2012 04:19 1007.9 15.9 8 21.7 10.8 120 9.5 0 - - 77.6
30-04-2012 04:10 1007.9 16.1 8.1 20.3 10.1 120 9.6 0 - - 76.9
30-04-2012 04:09 1007.9 16.1 8.1 20.3 10.1 120 9.6 0 - - 76.9
30-04-2012 04:00 1007.8 15.1 7.6 21.3 10.6 120 9.6 0 - - 77.6
30-04-2012 03:59 1007.8 15.1 7.5 21.3 10.6 120 9.6 0 - - 77.6
30-04-2012 03:50 1007.5 15.9 7.9 20.5 10.3 120 9.6 0 - - 77.1
30-04-2012 03:49 1007.7 15.8 7.9 20.5 10.3 120 9.6 0 - - 77.2
30-04-2012 03:40 1007.5 15.5 7.7 20.9 10.4 120 9.6 0 - - 77.3
30-04-2012 03:39 1007.6 15.5 7.8 20.9 10.4 120 9.6 0 - - 77.4
30-04-2012 03:30 1007.4 16.2 8.1 21.7 10.9 120 9.6 0 - - 76.4
30-04-2012 03:29 1007.4 16.2 8.1 21.7 10.9 120 9.7 0 - - 76.4
30-04-2012 03:20 1007.4 15 7.5 20.9 10.5 120 9.7 0 - - 76.7
30-04-2012 03:19 1007.4 15 7.5 20.9 10.5 120 9.7 0 - - 76.5
30-04-2012 03:10 1007.2 14.6 7.3 18.3 9.2 120 9.7 0 - - 76.8
30-04-2012 03:09 1007.3 14.5 7.3 18.3 9.2 120 9.7 0 - - 76.8
30-04-2012 03:00 1007.2 14.1 7 19 9.5 120 9.7 0 - - 76.1
30-04-2012 02:59 1007.2 14.1 7 19 9.5 120 9.7 0 - - 76.1
30-04-2012 02:50 1007.1 14 7 18.7 9.4 120 9.7 0 - - 76.8
30-04-2012 02:49 1007.1 14 7 18.7 9.4 120 9.7 0 - - 76.8
30-04-2012 02:40 1007.1 13.5 6.8 17.5 8.8 120 9.8 0 - - 76.4
30-04-2012 02:39 1007.1 13.6 6.8 17.5 8.8 120 9.8 0 - - 76.3
30-04-2012 02:30 1006.9 14.1 7.1 19.2 9.6 120 9.8 0 - - 76.7
30-04-2012 02:29 1007.1 14.1 7.1 19.2 9.6 120 9.8 0 - - 76.7
30-04-2012 02:20 1007.1 16 8 19.6 9.8 120 9.9 0 - - 75.4
30-04-2012 02:19 1007.1 16 8 19.6 9.8 120 9.9 0 - - 75.3
30-04-2012 02:10 1006.8 15.2 7.6 19.7 9.8 120 10 0 - - 75.1
30-04-2012 02:09 1006.7 15.3 7.6 19.7 9.8 120 10 0 - - 75.1
30-04-2012 02:00 1006.8 15.3 7.7 19.6 9.8 120 10.1 0 - - 76
30-04-2012 01:59 1006.7 15.3 7.7 19.6 9.8 120 10.1 0 - - 76
30-04-2012 01:50 1006.7 14.4 7.2 20.3 10.2 140 10.2 0 - - 72.8
30-04-2012 01:49 1006.7 14.4 7.2 20.3 10.2 140 10.2 0 - - 72.7
30-04-2012 01:40 1006.5 15.4 7.7 20.6 10.3 130 10.2 0 - - 72.8
30-04-2012 01:39 1006.6 15.4 7.7 20.6 10.3 130 10.2 0 - - 72.8
30-04-2012 01:30 1006.5 16.3 8.2 21.1 10.5 120 10.3 0 - - 75
30-04-2012 01:29 1006.5 16.3 8.2 21.1 10.5 120 10.3 0 - - 75
30-04-2012 01:20 1006.3 12.7 6.4 20 10 140 10.3 0 - - 71.8
30-04-2012 01:19 1006.3 12.7 6.4 20 10 140 10.3 0 - - 71.8
30-04-2012 01:10 1006.2 14.2 7.1 20.9 10.4 130 10.3 0 - - 72
30-04-2012 01:09 1006.3 14.2 7.1 20.9 10.4 130 10.3 0 - - 72
30-04-2012 01:00 1006.2 15.6 7.8 21.5 10.7 120 10.2 0 - - 73.7
30-04-2012 00:59 1006.2 15.6 7.8 21.5 10.7 120 10.2 0 - - 74
30-04-2012 00:50 1005.9 15.6 7.8 21.4 10.7 120 10.4 0 - - 76.1
30-04-2012 00:49 1006.1 15.6 7.8 21.4 10.7 120 10.4 0 - - 76.1
30-04-2012 00:40 1005.9 15.5 7.8 19.8 9.9 120 10.4 0 - - 74
30-04-2012 00:30 1005.8 12 6 16.8 8.4 130 10.4 0 - - 74.6
30-04-2012 00:29 1005.8 12 6 16.8 8.4 130 10.4 0 - - 74.6
30-04-2012 00:20 1005.8 13.1 6.5 20.1 10 140 10.4 0 - - 72.7
30-04-2012 00:19 1005.8 13.1 6.6 20.1 10 140 10.4 0 - - 72.7
30-04-2012 00:10 1005.9 12.9 6.4 17.5 8.8 140 10.4 0 - - 74.1
30-04-2012 00:09 1005.9 12.9 6.5 17.5 8.8 140 10.4 0 - - 74.1
30-04-2012 00:00 1005.8 16.3 8.1 22.1 11.1 140 10.7 0 - - 71.3
29-04-2012 23:59 1005.8 16.3 8.1 22.1 11.1 140 10.7 0 - - 71.3
29-04-2012 23:50 1005.5 19.4 9.7 25.9 12.9 120 10.9 0 - - 69.7
29-04-2012 23:49 1005.6 19.4 9.7 25.9 12.9 120 10.9 0 - - 69.5
29-04-2012 23:40 1005.4 15 7.5 18.8 9.4 120 10.9 0 - - 73.6
29-04-2012 23:39 1005.4 15 7.5 18.8 9.4 120 10.9 0 - - 73.6
29-04-2012 23:30 1005.3 12.3 6.1 18.3 9.2 130 10.8 0 - - 74.4
29-04-2012 23:29 1005.3 12.2 6.1 18.3 9.2 130 10.8 0 - - 74.4
29-04-2012 23:20 1005.3 15.3 7.7 21.2 10.6 140 11 0 - - 70
29-04-2012 23:19 1005.2 15.4 7.7 21.2 10.6 140 11 0 - - 70
29-04-2012 23:10 1005.2 15.9 8 21.1 10.5 120 11 0 - - 71.3
29-04-2012 23:09 1005.2 15.9 7.9 21.1 10.5 120 11 0 - - 71.3
29-04-2012 23:00 1005.2 14.5 7.3 18.3 9.2 120 10.9 0 - - 74.3
29-04-2012 22:59 1005.2 14.5 7.3 18.3 9.2 120 10.9 0 - - 74.3
29-04-2012 22:50 1005.2 13.2 6.6 19.1 9.6 120 10.8 0 - - 76.5
29-04-2012 22:49 1005.2 13.3 6.7 19.1 9.6 120 10.8 0 - - 76.5
29-04-2012 22:40 1005.1 13.5 6.7 17 8.5 120 10.8 0 - - 76.1
29-04-2012 22:39 1005.1 13.5 6.7 17 8.5 120 10.8 0 - - 76.1
29-04-2012 22:30 1004.9 13.7 6.9 18.9 9.5 120 10.8 0 - - 77.7
29-04-2012 22:29 1005.1 13.7 6.9 18.9 9.5 120 10.8 0 - - 77.7
29-04-2012 22:20 1004.9 12.5 6.3 21.5 10.8 120 10.9 0 - - 77.3
29-04-2012 22:19 1004.9 12.5 6.3 21.5 10.8 120 10.9 0 - - 77.4
29-04-2012 22:10 1004.6 11.8 5.9 15.9 8 130 11 0 - - 74
29-04-2012 22:09 1004.7 11.9 5.9 15.9 8 130 11 0 - - 74
29-04-2012 22:00 1004.6 13.6 6.8 22.1 11 140 11.3 0 - - 68.8
29-04-2012 21:59 1004.7 13.7 6.8 22.1 11 140 11.3 0 - - 68.8
29-04-2012 21:50 1004.5 17.1 8.5 18.4 9.2 130 11 0 - - 72.4
29-04-2012 21:49 1004.5 18.4 9.2 18.4 9.2 130 11 0 - - 72.6
29-04-2012 21:40 1004.5 11.9 5.9 12.8 6.4 110 11 0 - - 76.4
29-04-2012 21:39 1004.4 12.6 6.3 12.8 6.4 120 11 0 - - 76.4
29-04-2012 21:30 1004.4 8.4 4.2 10.6 5.3 130 11.1 0 - - 71.5
29-04-2012 21:29 1004.4 8.2 4.1 10.6 5.3 130 11.1 0 - - 71.5
29-04-2012 21:20 1004.4 12 6 12.8 6.4 130 11 0 - - 71.3
29-04-2012 21:19 1004.4 11.2 5.6 11.4 5.7 140 11 0 - - 71.4
29-04-2012 21:10 1004.3 14.2 7.1 14.4 7.2 160 11.4 0 - - 67
29-04-2012 21:09 1004.2 14.6 7.3 14.4 7.2 140 11.3 0 - - 67
29-04-2012 21:00 1004.3 12.9 6.5 11.7 5.8 150 11 0 - - 69.1
29-04-2012 20:59 1003.9 13 6.5 11.7 5.8 140 11 0 - - 69.2
29-04-2012 20:50 1004.2 10.7 5.4 11.7 5.8 150 11 0 - - 70.6
29-04-2012 20:49 1004.2 10.2 5.1 11.7 5.8 140 11 0 - - 70.5
29-04-2012 20:40 1004.2 11.8 5.9 11.8 5.9 140 11 0 - - 69.9
29-04-2012 20:39 1004.3 13.3 6.7 11.8 5.9 130 11 0 - - 69.9
29-04-2012 20:30 1004.2 9.3 4.7 12 6 130 11 0 - - 71
29-04-2012 20:29 1004.3 7.8 3.9 12 6 140 11 0 - - 71
29-04-2012 20:20 1004.2 11.9 6 13.6 6.8 130 11.2 0 - - 68.1
29-04-2012 20:19 1004.2 13.4 6.7 13.6 6.8 140 11.2 0 - - 68
29-04-2012 20:10 1004.1 12.1 6.1 14 7 80 11.3 0 - - 68
29-04-2012 20:09 1003.8 17.4 8.7 14 7 140 11.3 0 - - 68
29-04-2012 20:00 1003.9 12.4 6.2 12.6 6.3 120 11.1 0 - - 69
29-04-2012 19:59 1003.9 12.6 6.3 17.2 8.6 120 11.1 0 - - 69
29-04-2012 19:50 1003.7 10.9 5.4 13.4 6.7 120 11 0 - - 75.4
29-04-2012 19:49 1003.7 10.9 5.4 13.4 6.7 120 11 0 - - 75.4
29-04-2012 19:40 1003.5 11 5.5 17.4 8.7 140 11.2 0 - - 71.4
29-04-2012 19:39 1003.5 11 5.5 17.4 8.7 140 11.2 0 - - 71.4
29-04-2012 19:30 1003.3 11.5 5.8 16.3 8.2 140 11.3 0 - - 69.8
29-04-2012 19:29 1003.4 11.6 5.8 16.3 8.2 140 11.3 0 - - 69.7
29-04-2012 19:20 1003.2 11.5 5.8 15.5 7.8 120 10.9 0 - - 75
29-04-2012 19:19 1003.2 11.5 5.8 15.5 7.8 120 10.9 0 - - 75.2
29-04-2012 19:10 1002.9 10.4 5.2 13.2 6.6 110 10.7 0 - - 79.1
29-04-2012 19:09 1002.8 10.4 5.2 13.2 6.6 110 10.7 0 - - 79.2
29-04-2012 19:00 1002.6 9.5 4.8 13 6.5 120 10.7 0 - - 77.1
29-04-2012 18:59 1002.6 9.5 4.7 13 6.5 120 10.7 0 - - 77.1
29-04-2012 18:50 1002.6 10.1 5 13 6.5 120 10.8 0 - - 76.5
29-04-2012 18:49 1002.6 10 5 13 6.5 120 10.7 0 - - 76.5
29-04-2012 18:40 1002.6 10.9 5.5 15 7.5 120 10.9 0 - - 73.3
29-04-2012 18:39 1002.5 10.9 5.4 15 7.5 120 10.8 0 - - 73.3
29-04-2012 18:30 1002.4 9.2 4.6 12.4 6.2 120 10.9 0 - - 76.2
29-04-2012 18:29 1002.4 9.2 4.6 12.4 6.2 120 10.9 0 - - 76.1
29-04-2012 18:20 1002.2 10.2 5.1 13.8 6.9 130 10.9 0 - - 72
29-04-2012 18:19 1002.2 10.2 5.1 13.8 6.9 130 11 0 - - 72
29-04-2012 18:10 1002.2 8.7 4.3 13.8 6.9 130 10.8 0 - - 75.4
29-04-2012 18:09 1002.2 8.7 4.4 13.8 6.9 140 10.8 0 - - 75.5
29-04-2012 18:00 1001.9 9 4.5 13.6 6.8 150 10.8 0 - - 75.3
29-04-2012 17:59 1001.9 9 4.5 13.6 6.8 150 10.8 0 - - 75.5
29-04-2012 17:50 1001.8 9.5 4.7 15.3 7.7 140 10.8 0 - - 74.7
29-04-2012 17:49 1001.9 9.4 4.7 15.3 7.7 140 10.8 0 - - 75
29-04-2012 17:40 1001.9 10.8 5.4 14 7 120 10.8 0 - - 77
29-04-2012 17:39 1001.7 10.8 5.4 14 7 120 10.7 0 - - 77
29-04-2012 17:30 1001.8 9.2 4.6 12.2 6.1 130 10.8 0 - - 78.9
29-04-2012 17:29 1001.8 9.2 4.6 12.2 6.1 130 10.8 0 - - 78.8
29-04-2012 17:20 1001.7 10.3 5.2 14.1 7.1 140 10.8 0 - - 76.1
29-04-2012 17:10 1001.7 10.3 5.2 13.2 6.6 140 10.8 0 - - 76.5
29-04-2012 17:09 1001.7 10.3 5.2 13.2 6.6 140 10.8 0 - - 76.5
29-04-2012 17:00 1001.7 8.6 4.3 12.6 6.3 140 10.9 0 - - 76.9
29-04-2012 16:59 1001.7 8.6 4.3 12.6 6.3 140 10.9 0 - - 76.9
29-04-2012 16:50 1001.6 9.8 4.9 15.4 7.7 150 11 0 - - 76.8
29-04-2012 16:49 1001.6 9.8 4.9 15.4 7.7 150 11 0 - - 76.8
29-04-2012 16:40 1001.6 12.5 6.3 15.6 7.8 150 11.1 0 - - 74
29-04-2012 16:39 1001.6 12.5 6.2 15.6 7.8 150 11 0 - - 74
29-04-2012 16:30 1001.4 10 5 13.8 6.9 140 11.2 0 - - 74.2
29-04-2012 16:29 1001.4 10 5 13.8 6.9 140 11.3 0 - - 74.3
29-04-2012 16:20 1001.3 10.3 5.2 15.6 7.8 130 11.3 0 - - 76.2
29-04-2012 16:19 1001.4 10.4 5.2 15.6 7.8 130 11.3 0 - - 76.2
29-04-2012 16:10 1001.3 11 5.5 14 7 130 11.1 0 - - 79.8
29-04-2012 16:09 1001.2 11 5.5 14 7 130 11.1 0 - - 79.7
29-04-2012 16:00 1000.9 11.3 5.6 14 7 120 11.1 0 - - 81.4
29-04-2012 15:59 1000.9 11.3 5.6 14 7 120 11.1 0 - - 81.3
29-04-2012 15:50 1000.8 10.4 5.2 17.8 8.9 130 10.9 0 - - 81.5
29-04-2012 15:49 1000.8 10.4 5.2 17.8 8.9 130 10.8 0 - - 81.6
29-04-2012 15:40 1000.8 9.4 4.7 14.4 7.2 120 10.8 0 - - 84.4
29-04-2012 15:39 1000.8 9.4 4.7 14.4 7.2 120 10.8 0 - - 84.4
29-04-2012 15:30 1000.7 12.3 6.1 18.8 9.4 140 11 0 - - 83.7
29-04-2012 15:29 1000.7 12.3 6.2 18.8 9.4 140 11 0 - - 83.6
29-04-2012 15:20 1000.3 15 7.5 25.9 13 130 11.8 0 - - 77.3
29-04-2012 15:19 1000.3 15 7.5 25.9 13 120 11.8 0 - - 77.3
29-04-2012 15:10 999.8 14.3 7.2 19.9 9.9 110 11.9 0 - - 76.2
29-04-2012 15:09 999.8 14.3 7.2 19.9 9.9 110 11.9 0 - - 76.1
29-04-2012 15:00 999.5 11 5.5 15 7.5 110 11.4 0 - - 80.1
29-04-2012 14:59 999.5 11 5.5 15 7.5 110 11.4 0 - - 80.2
29-04-2012 14:50 999.5 11.7 5.9 15.6 7.8 120 11.7 0 - - 77.9
29-04-2012 14:49 999.5 11.7 5.8 15.6 7.8 120 11.7 0 - - 77.9
29-04-2012 14:40 999.5 12.2 6.1 16.8 8.4 120 11.9 0 - - 76.5
29-04-2012 14:39 999.5 12.2 6.1 16.8 8.4 120 11.9 0 - - 76.5
29-04-2012 14:30 999.4 13.9 6.9 19.8 9.9 120 12 0 - - 75.1
29-04-2012 14:29 999.4 13.9 6.9 19.8 9.9 120 12 0 - - 75.1
29-04-2012 14:20 999.2 16.3 8.2 23.3 11.6 120 12.3 0 - - 71.9
29-04-2012 14:19 999.2 16.3 8.2 23.3 11.6 120 12.3 0 - - 71.9
29-04-2012 14:10 999 13.7 6.9 19.6 9.8 110 12.2 0 - - 76
29-04-2012 14:09 999 13.7 6.9 19.6 9.8 110 12.2 0 - - 76
29-04-2012 14:00 999 16.3 8.2 19.8 9.9 110 12.5 0 - - 74.5
29-04-2012 13:59 999.1 16.3 8.2 19.8 9.9 110 12.5 0 - - 74.4
29-04-2012 13:50 998.9 18.6 9.3 22.5 11.3 100 12.2 0 - - 74
29-04-2012 13:49 999 18.5 9.3 22.5 11.3 100 12.3 0 - - 74
29-04-2012 13:40 998.9 15.5 7.8 19.4 9.7 100 12.6 0 - - 74.7
29-04-2012 13:39 999 15.5 7.7 19.4 9.7 100 12.6 0 - - 74.6
29-04-2012 13:30 998.9 16.7 8.4 21.9 11 100 12.2 0 - - 76.8
29-04-2012 13:29 999 16.7 8.4 21.9 11 100 12.2 0 - - 76.8
29-04-2012 13:20 998.9 11.2 5.6 14.4 7.2 110 12 0 - - 79
29-04-2012 13:19 999 11.2 5.6 14.4 7.2 110 12 0 - - 79.1
29-04-2012 13:10 999 11.7 5.9 16.6 8.3 120 12 0 - - 78.3
29-04-2012 13:09 999 11.7 5.9 16.6 8.3 120 12 0 - - 78.3
29-04-2012 13:00 999 13.2 6.6 16.3 8.2 110 11.9 0 - - 78.5
29-04-2012 12:59 999 13.2 6.6 16.3 8.2 110 11.9 0 - - 78.5
29-04-2012 12:50 998.9 12.7 6.3 18.7 9.4 110 11.6 0 - - 82.4
29-04-2012 12:49 998.9 12.8 6.4 18.7 9.4 110 11.6 0 - - 82.3
29-04-2012 12:40 998.8 12.3 6.2 15.9 8 110 11.4 0 - - 85.3
29-04-2012 12:39 998.9 12.3 6.2 15.9 8 110 11.4 0 - - 85.2
29-04-2012 12:30 998.8 12.2 6.1 15.2 7.6 120 11.7 0 - - 83.3
29-04-2012 12:29 998.8 12.2 6.1 15.2 7.6 120 11.7 0 - - 83.3
29-04-2012 12:20 998.6 12.3 6.1 16.5 8.3 110 11.8 0 - - 84.5
29-04-2012 12:19 998.7 12.3 6.2 16.5 8.3 110 11.8 0 - - 84.5
29-04-2012 12:10 998.8 15.1 7.6 21.1 10.6 110 12 0 - - 85
29-04-2012 12:09 998.8 15.1 7.5 21.1 10.6 110 12 0 - - 85.1
29-04-2012 12:00 998.6 22.6 11.3 26.9 13.4 100 12 0 - - 85.5
29-04-2012 11:59 998.6 22.6 11.3 26.9 13.4 100 12 0 - - 85.4
29-04-2012 11:50 998.3 15.5 7.7 20.4 10.2 110 11.7 0 - - 87.8
29-04-2012 11:49 998.3 15.4 7.7 20.4 10.2 110 11.7 0 - - 87.8
29-04-2012 11:40 998.2 19.9 10 22.5 11.3 100 11.7 0 - - 87.9
29-04-2012 11:39 998 19.9 9.9 22.5 11.3 100 11.7 0 - - 87.9
29-04-2012 11:30 998 16.8 8.4 20.4 10.2 100 11.7 0 - - 90.5
29-04-2012 11:29 998.1 16.8 8.4 20.4 10.2 100 11.7 0 - - 90.5
29-04-2012 11:20 997.9 15.6 7.8 20.2 10.1 100 11.6 0 - - 91.6
29-04-2012 11:19 997.9 15.6 7.8 20.2 10.1 100 11.6 0 - - 91.6
29-04-2012 11:10 998.2 17.5 8.8 22.9 11.5 100 11.2 0 - - 91.7
29-04-2012 11:09 998.3 17.5 8.8 22.9 11.5 100 11.2 0 - - 91.8
29-04-2012 11:00 998 15.8 7.9 22.9 11.4 100 11 0 - - 92
29-04-2012 10:59 998.1 15.8 7.9 22.9 11.4 100 11 0 - - 92
29-04-2012 10:50 997.9 16.1 8 20.8 10.4 100 11 0 - - 90.8
29-04-2012 10:49 997.9 16.1 8 20.8 10.4 100 11 0 - - 90.8
29-04-2012 10:40 997.7 14.3 7.2 20.8 10.4 80 10.8 0 - - 90.9
29-04-2012 10:39 997.6 14.3 7.2 20.8 10.4 80 10.8 0 - - 90.9
29-04-2012 10:30 997.5 12.8 6.4 18.3 9.2 80 10.8 0 - - 90.4
29-04-2012 10:29 997.3 12.8 6.4 18.3 9.2 80 10.8 0 - - 90.4
29-04-2012 10:20 997.2 12.4 6.2 16.2 8.1 60 10.3 0 - - 91.1
29-04-2012 10:19 997.3 12.4 6.2 16.2 8.1 60 10.3 0 - - 91.1
29-04-2012 10:10 997 10.8 5.4 17.2 8.6 30 10 0 - - 90.8
29-04-2012 10:09 997 10.8 5.4 17.2 8.6 30 10 0 - - 90.8
29-04-2012 10:00 996.7 9.6 4.8 15.6 7.8 50 10 0 - - 90
29-04-2012 09:59 996.7 9.6 4.8 15.6 7.8 50 10 0 - - 90
29-04-2012 09:50 996.7 11.5 5.8 17.7 8.9 50 10 0 - - 89.9
29-04-2012 09:49 996.7 11.5 5.7 17.7 8.9 50 10 0 - - 89.9
29-04-2012 09:40 996.7 10.8 5.4 15.6 7.8 30 9.9 0 - - 90.5
29-04-2012 09:39 996.6 10.8 5.4 15.6 7.8 30 9.8 0 - - 90.5
29-04-2012 09:30 996.9 10.8 5.4 16.4 8.2 30 9.8 0 - - 90.4
29-04-2012 09:29 996.8 10.9 5.5 16.4 8.2 30 9.8 0 - - 90.4
29-04-2012 09:20 996.9 11.1 5.6 15.4 7.7 30 9.8 0 - - 90.2
29-04-2012 09:19 996.8 11.2 5.6 15.4 7.7 30 9.8 0 - - 90.1
29-04-2012 09:10 997.1 12.6 6.3 16.8 8.4 40 9.7 0 - - 90.2
29-04-2012 09:09 997.2 12.6 6.3 16.8 8.4 40 9.7 0 - - 90.2
29-04-2012 09:00 997 12.6 6.3 18.2 9.1 20 9.6 0 - - 90.2
29-04-2012 08:59 997.3 12.6 6.3 18.2 9.1 30 9.7 0 - - 90.2
29-04-2012 08:50 997.1 11.1 5.6 18 9 20 9.7 0 - - 90
29-04-2012 08:49 997.2 11.1 5.6 18 9 20 9.7 0 - - 90
29-04-2012 08:40 997.2 13.2 6.6 17.6 8.8 40 9.6 0 - - 89.5
29-04-2012 08:39 997.3 13.3 6.6 17.6 8.8 40 9.6 0 - - 89.5
29-04-2012 08:30 997.3 10.9 5.5 14.4 7.2 70 9.5 0 - - 90
29-04-2012 08:29 997.3 10.9 5.5 14.4 7.2 70 9.5 0 - - 90
29-04-2012 08:20 997.5 10.8 5.4 16 8 50 9.3 0 - - 90
29-04-2012 08:19 997.6 10.9 5.4 16 8 50 9.3 0 - - 90
29-04-2012 08:10 997 13 6.5 18.6 9.3 20 9.2 0 - - 90
29-04-2012 08:09 997.1 12.9 6.5 18.6 9.3 20 9.2 0 - - 90
29-04-2012 08:00 997.4 10.8 5.4 15.3 7.7 70 9.1 0 - - 90
29-04-2012 07:59 997.4 10.7 5.3 15.3 7.7 70 9.1 0 - - 90
29-04-2012 07:50 997.6 12.9 6.5 17.6 8.8 40 9 0 - - 89.6
29-04-2012 07:49 997.5 13 6.5 17.6 8.8 40 9 0 - - 89.6
29-04-2012 07:40 997.6 12.1 6.1 15.6 7.8 30 8.9 0 - - 89.3
29-04-2012 07:30 997.9 10.9 5.4 14.9 7.5 30 8.9 0 - - 89.3
29-04-2012 07:29 997.8 11 5.5 14.9 7.5 40 8.8 0 - - 89.3
29-04-2012 07:20 997.9 11.1 5.6 18.6 9.3 30 8.7 0 - - 89.3
29-04-2012 07:19 997.7 11.1 5.5 18.6 9.3 30 8.7 0 - - 89.3
29-04-2012 07:10 997.9 11.9 5.9 15.8 7.9 30 8.5 0 - - 89.1
29-04-2012 07:09 997.7 11.8 5.9 15.8 7.9 30 8.5 0 - - 89.1
29-04-2012 07:00 997.9 13.1 6.5 19.5 9.8 20 8.4 0 - - 89
29-04-2012 06:59 997.9 13 6.5 19.5 9.8 20 8.4 0 - - 89
29-04-2012 06:50 997.9 12.1 6 14.8 7.4 20 8.2 0 - - 89
29-04-2012 06:49 998.1 12 6 14.8 7.4 30 8.3 0 - - 89
29-04-2012 06:40 997.9 12.5 6.2 20.3 10.2 20 8.2 0 - - 88.8
29-04-2012 06:39 998.1 12.5 6.2 20.3 10.2 20 8.2 0 - - 88.8
29-04-2012 06:30 998.1 12 6 18.9 9.5 20 8 0 - - 89
29-04-2012 06:29 998 12.1 6.1 18.9 9.5 20 8 0 - - 89
29-04-2012 06:20 998.9 13 6.5 18.2 9.1 20 8 0 - - 88.6
29-04-2012 06:19 998.8 13 6.5 18.2 9.1 20 8 0 - - 88.6
29-04-2012 06:10 999.1 12.3 6.1 15.9 8 40 7.9 0 - - 88.8
29-04-2012 06:09 999 12.3 6.2 15.9 8 40 7.9 0 - - 88.8
29-04-2012 06:00 999 14.2 7.1 22.1 11.1 20 7.9 0 - - 88.6
29-04-2012 05:59 999 14.1 7.1 22.1 11.1 20 7.9 0 - - 88.6
29-04-2012 05:50 999.2 14.5 7.3 20.8 10.4 20 7.9 0 - - 88.7
29-04-2012 05:49 999.1 14.5 7.3 20.8 10.4 20 7.9 0 - - 88.6
29-04-2012 05:40 999.5 13.8 6.9 17.5 8.8 20 7.9 0 - - 88.9
29-04-2012 05:39 999.5 13.8 6.9 17.5 8.8 20 7.9 0 - - 88.9
29-04-2012 05:30 999.8 15.2 7.6 23.1 11.6 20 7.9 0 - - 89.1
29-04-2012 05:29 999.6 15.4 7.7 23.1 11.6 20 7.9 0 - - 89.1
29-04-2012 05:20 1000.2 12.2 6.1 20.1 10 30 8 0 - - 89.6
29-04-2012 05:19 999.9 12.2 6.1 20.1 10 20 7.9 0 - - 89.5
29-04-2012 05:10 1000.1 12.5 6.3 15.3 7.7 30 8 0 - - 89.6
29-04-2012 05:09 1000.2 12.7 6.4 15.3 7.7 30 8 0 - - 89.6
29-04-2012 05:00 1000.3 10.2 5.1 14.6 7.3 20 8.1 0 - - 89.7
29-04-2012 04:59 1000.2 10.2 5.1 14.4 7.2 20 8.1 0 - - 89.7
29-04-2012 04:50 1000 13.5 6.8 18.4 9.2 20 8.1 0 - - 89.7
29-04-2012 04:49 1000 13.6 6.8 18.4 9.2 20 8.1 0 - - 89.7
29-04-2012 04:40 999.8 13.1 6.5 17 8.5 20 8.1 0 - - 89.9
29-04-2012 04:39 999.7 13.3 6.6 17 8.5 20 8.1 0 - - 89.9
29-04-2012 04:30 999.6 15.4 7.7 23.3 11.6 20 8 0 - - 89.5
29-04-2012 04:29 999.6 15.7 7.8 23.3 11.6 10 8 0 - - 89.5
29-04-2012 04:20 999.6 14.3 7.2 19.9 10 10 8 0 - - 89.3
29-04-2012 04:19 999.6 14.2 7.1 19.9 10 10 8 0 - - 89.3
29-04-2012 04:10 999.7 11.5 5.8 17.8 8.9 30 8.1 0 - - 89.1
29-04-2012 04:09 999.5 11.4 5.7 17.8 8.9 30 8 0 - - 89.1
29-04-2012 04:00 1000.8 7.9 4 12.7 6.3 40 8.1 0 - - 89
29-04-2012 03:59 1000.8 8 4 12.7 6.3 40 8 0 - - 89
29-04-2012 03:50 999.8 10.7 5.3 15.4 7.7 40 8 0 - - 89.1
29-04-2012 03:49 999.9 10.2 5.1 15.4 7.7 40 8 0 - - 89.1
29-04-2012 03:40 1000.2 13.4 6.7 17.7 8.8 30 8 0 - - 89
29-04-2012 03:39 1000 13.5 6.7 17.7 8.8 30 8 0 - - 88.9
29-04-2012 03:30 1000.8 13.8 6.9 21 10.5 50 8 0 - - 89
29-04-2012 03:29 1000.6 13.6 6.8 21 10.5 50 8 0 - - 89
29-04-2012 03:20 1000.6 13.1 6.6 24.9 12.5 20 7.9 0 - - 89
29-04-2012 03:19 1000.7 13 6.5 24.9 12.5 20 7.9 0 - - 89
29-04-2012 03:10 1001.2 13.6 6.8 19.5 9.7 30 7.8 0 - - 88.8
29-04-2012 03:09 1001.1 13.8 6.9 19.5 9.7 30 7.9 0 - - 88.8
29-04-2012 03:00 1000.6 14.4 7.2 23.2 11.6 20 7.8 0 - - 88.8
29-04-2012 02:59 1000.7 14.5 7.3 23.2 11.6 20 7.8 0 - - 88.8
29-04-2012 02:50 1000.8 14 7 17.7 8.9 20 7.7 0 - - 88.8
29-04-2012 02:49 1000.7 14 7 17.7 8.9 20 7.7 0 - - 88.8
29-04-2012 02:40 1000.6 13.8 6.9 18.5 9.3 20 7.5 0 - - 88.7
29-04-2012 02:39 1000.6 13.9 7 18.5 9.3 20 7.5 0 - - 88.7
29-04-2012 02:30 1000.7 14.3 7.1 20.4 10.2 20 7.5 0 - - 88.4
29-04-2012 02:29 1000.8 14.2 7.1 20.4 10.2 20 7.5 0 - - 88.4
29-04-2012 02:20 1000.7 16.6 8.3 20.2 10.1 10 7.4 0 - - 88.1
29-04-2012 02:19 1000.7 16.6 8.3 20.2 10.1 10 7.4 0 - - 88.1
29-04-2012 02:10 1000.7 14.5 7.3 22.1 11.1 20 7.4 0 - - 88.1
29-04-2012 02:09 1000.8 14.6 7.3 22.1 11.1 20 7.4 0 - - 88.1
29-04-2012 02:00 1000.8 13.4 6.7 19 9.5 20 7.3 0 - - 88.2
29-04-2012 01:59 1000.9 13.5 6.7 19 9.5 20 7.3 0 - - 88.1
29-04-2012 01:50 1000.6 15.5 7.7 23.4 11.7 20 7.3 0 - - 87.5
29-04-2012 01:49 1000.8 15.2 7.6 23.4 11.7 20 7.3 0 - - 87.5
29-04-2012 01:40 1000.9 14.3 7.2 22.5 11.3 20 7.2 0 - - 87.9
29-04-2012 01:39 1000.7 14.5 7.2 22.5 11.3 20 7.2 0 - - 87.9
29-04-2012 01:30 1001.6 13.4 6.7 19.2 9.6 30 7.2 0 - - 87.2
29-04-2012 01:29 1001.5 13.4 6.7 19.2 9.6 30 7.2 0 - - 87.2
29-04-2012 01:20 1001.8 13.9 7 21.7 10.9 30 7.2 0 - - 86.7
29-04-2012 01:19 1001.7 14 7 21.7 10.9 20 7.2 0 - - 86.7
29-04-2012 01:10 1001.5 15.4 7.7 24.3 12.2 20 7.3 0 - - 86.3
29-04-2012 01:09 1001.4 15.6 7.8 24.3 12.2 20 7.3 0 - - 86.3
29-04-2012 01:00 1001.1 15.5 7.8 24.5 12.2 20 7.2 0 - - 86.1
29-04-2012 00:59 1000.9 15.7 7.8 24.5 12.2 20 7.2 0 - - 86.1
29-04-2012 00:50 1001.7 14 7 18.5 9.3 20 7.1 0 - - 86.7
29-04-2012 00:49 1001.7 14.1 7 18.5 9.3 20 7.1 0 - - 86.7
29-04-2012 00:40 1001.9 13.7 6.8 18.9 9.4 10 7 0 - - 86.9
29-04-2012 00:39 1001.8 13.6 6.8 18.9 9.4 10 7 0 - - 86.9
29-04-2012 00:30 1002.4 15.7 7.9 21.9 11 20 7 0 - - 86.3
29-04-2012 00:29 1002.4 15.8 7.9 21.9 11 20 7 0 - - 86.3
29-04-2012 00:20 1002.7 15.6 7.8 24.5 12.3 20 7 0 - - 84
29-04-2012 00:19 1002.6 15.8 7.9 24.5 12.3 20 7 0 - - 86.4
29-04-2012 00:10 1002.5 13.1 6.6 23.4 11.7 20 6.9 0 - - 86.3
29-04-2012 00:09 1002.7 13.2 6.6 23.4 11.7 20 6.9 0 - - 86.3
29-04-2012 00:00 1003.1 13.9 6.9 21.4 10.7 20 6.8 0 - - 86.3
28-04-2012 23:59 1003.1 13.9 7 21.4 10.7 30 6.8 0 - - 86.3
28-04-2012 23:50 1003.4 15 7.5 26.1 13 20 6.8 0 - - 86.1
28-04-2012 23:49 1003.2 15 7.5 26.1 13 20 6.8 0 - - 86.1
28-04-2012 23:40 1003.4 12.8 6.4 21 10.5 30 6.6 0 - - 86.6
28-04-2012 23:39 1003.6 12.7 6.4 21 10.5 30 6.6 0 - - 86.6
28-04-2012 23:30 1003.9 13.3 6.7 21.3 10.6 20 6.6 0 - - 86.8
28-04-2012 23:29 1003.9 13.4 6.7 21.3 10.6 20 6.6 0 - - 86.8
28-04-2012 23:20 1004.2 13.1 6.5 23.5 11.8 20 6.5 0 - - 87.2
28-04-2012 23:19 1004.1 13.1 6.6 23.5 11.8 20 6.4 0 - - 87.2
28-04-2012 23:10 1004.5 14.3 7.1 23.9 12 20 6.4 0 - - 87.3
28-04-2012 23:09 1004.4 14.4 7.2 23.9 12 20 6.4 0 - - 87.3
28-04-2012 23:00 1004.3 14.3 7.1 22.7 11.3 20 6.4 0 - - 87.5
28-04-2012 22:50 1005.1 12.5 6.2 21.1 10.6 20 6.4 0 - - 87.1
28-04-2012 22:49 1005.1 12.4 6.2 21.1 10.6 20 6.4 0 - - 87.1
28-04-2012 22:40 1005.1 14.2 7.1 23.5 11.7 10 6.3 0 - - 86.8
28-04-2012 22:39 1005.1 14.2 7.1 23.5 11.7 10 6.3 0 - - 86.8
28-04-2012 22:30 1005.2 13.9 7 21 10.5 10 6.3 0 - - 87
28-04-2012 22:29 1005.2 13.9 7 21 10.5 10 6.3 0 - - 87
28-04-2012 22:20 1005.8 15 7.5 22.3 11.1 20 6.3 0 - - 86.9
28-04-2012 22:19 1005.9 15 7.5 22.3 11.1 20 6.3 0 - - 86.9
28-04-2012 22:10 1006.2 13.4 6.7 22.5 11.3 20 6.2 0 - - 86.8
28-04-2012 22:09 1005.9 13.4 6.7 22.5 11.3 20 6.2 0 - - 86.7
28-04-2012 22:00 1006.3 13.6 6.8 23.9 11.9 20 6.2 0 - - 86.2
28-04-2012 21:59 1006.2 13.6 6.8 23.9 11.9 20 6.2 0 - - 86.2
28-04-2012 21:50 1006.1 13.3 6.7 14.5 7.3 20 6.2 0 - - 86.4
28-04-2012 21:49 1005.9 13.7 6.9 14.5 7.3 20 6.2 0 - - 86.4
28-04-2012 21:40 1005.9 11.6 5.8 16.2 8.1 20 6.2 0 - - 86.2
28-04-2012 21:39 1006.1 11.6 5.8 15.2 7.6 30 6.2 0 - - 86.2
28-04-2012 21:30 1005.4 17.1 8.5 24.7 12.3 20 6.2 0 - - 86.7
28-04-2012 21:29 1005.7 17.3 8.7 24.7 12.3 20 6.2 0 - - 86.7
28-04-2012 21:20 1006.2 15.4 7.7 21.3 10.7 10 6.2 0 - - 86.1
28-04-2012 21:19 1006.1 15.6 7.8 21.3 10.7 10 6.2 0 - - 0
28-04-2012 21:10 1006.5 13.8 6.9 18.3 9.2 20 6.3 0 - - 86
28-04-2012 21:09 1006.7 13.8 6.9 18.3 9.2 20 6.3 0 - - 86
28-04-2012 21:00 1006.6 13.3 6.6 21.7 10.9 20 6.3 0 - - 85.9
28-04-2012 20:59 1006.6 13.2 6.6 21.7 10.9 20 6.3 0 - - 85.9
28-04-2012 20:50 1006.6 15.4 7.7 23.4 11.7 20 6.4 0 - - 85.9
28-04-2012 20:49 1006.7 15.3 7.7 23.4 11.7 20 6.4 0 - - 85.9
28-04-2012 20:40 1007.1 13.6 6.8 19 9.5 20 6.4 0 - - 85.2
28-04-2012 20:39 1007.1 13.6 6.8 19 9.5 20 6.4 0 - - 85.2
28-04-2012 20:30 1007.1 13.7 6.9 17.8 8.9 20 6.4 0 - - 85.8
28-04-2012 20:29 1007.2 13.9 6.9 17.8 8.9 20 6.4 0 - - 85.8
28-04-2012 20:20 1006.5 15.4 7.7 20.6 10.3 10 6.5 0 - - 85.3
28-04-2012 20:19 1006.7 15.2 7.6 20.6 10.3 10 6.5 0 - - 85.4
28-04-2012 20:10 1006.6 15.4 7.7 21.3 10.6 20 6.5 0 - - 85.4
28-04-2012 20:09 1006.7 15.7 7.8 21.3 10.6 10 6.5 0 - - 85.4
28-04-2012 20:00 1006.7 15.2 7.6 19.4 9.7 20 6.6 0 - - 85.4
28-04-2012 19:59 1006.6 15.3 7.7 19.4 9.7 20 6.6 0 - - 85.4
28-04-2012 19:50 1007.1 14.9 7.5 19.3 9.7 10 6.6 0 - - 85.7
28-04-2012 19:49 1006.9 14.9 7.4 19.3 9.7 10 6.6 0 - - 85.7
28-04-2012 19:40 1007.1 13.9 7 18.8 9.4 20 6.7 0 - - 86.1
28-04-2012 19:39 1007.1 13.9 6.9 18.8 9.4 20 6.7 0 - - 86.1
28-04-2012 19:30 1007.1 13 6.5 20 10 10 6.8 0 - - 85.8
28-04-2012 19:29 1007.2 13 6.5 20 10 10 6.8 0 - - 85.8
28-04-2012 19:20 1006.8 14.1 7.1 21.4 10.7 10 6.8 0 - - 86.1
28-04-2012 19:19 1007.1 13.7 6.9 20.3 10.2 10 6.8 0 - - 86.1
28-04-2012 19:10 1007.3 14.6 7.3 20.8 10.4 10 6.9 0 - - 86.6
28-04-2012 19:09 1007.4 14.3 7.1 20.8 10.4 20 6.9 0 - - 86.6
28-04-2012 19:00 1007.7 12.7 6.4 17.2 8.6 10 7 0 - - 86.6
28-04-2012 18:59 1007.8 12.8 6.4 17.2 8.6 20 7 0 - - 86.6
28-04-2012 18:50 1007.7 9.7 4.8 14 7 20 7.1 0 - - 86.4
28-04-2012 18:49 1007.9 9.7 4.9 14 7 20 7.1 0 - - 86.4
28-04-2012 18:40 1008 12.5 6.2 17.2 8.6 20 7.2 0 - - 86.2
28-04-2012 18:39 1008 12.8 6.4 17.2 8.6 20 7.2 0 - - 86.2
28-04-2012 18:30 1008.2 15.3 7.7 20.2 10.1 20 7.3 0 - - 86.1
28-04-2012 18:29 1007.9 15.5 7.7 20.2 10.1 30 7.3 0 - - 86.1
28-04-2012 18:20 1008.3 12.1 6.1 16.2 8.1 20 7.3 0 - - 86.9
28-04-2012 18:19 1008.3 12.2 6.1 16.2 8.1 20 7.3 0 - - 86.9
28-04-2012 18:10 1008.2 13.2 6.6 17 8.5 20 7.4 0 - - 85.9
28-04-2012 18:09 1008.2 13 6.5 17 8.5 20 7.4 0 - - 85.9
28-04-2012 18:00 1008.3 12.7 6.3 17 8.5 20 7.5 0 - - 86.4
28-04-2012 17:59 1008.4 12.5 6.2 17 8.5 20 7.5 0 - - 86.3
28-04-2012 17:50 1008.6 8.6 4.3 13 6.5 20 7.5 0 - - 86.4
28-04-2012 17:49 1008.7 8.6 4.3 13 6.5 20 7.6 0 - - 86.4
28-04-2012 17:40 1008.8 10.6 5.3 12.8 6.4 20 7.6 0 - - 86.7
28-04-2012 17:39 1008.7 10.6 5.3 12.8 6.4 20 7.6 0 - - 86.6
28-04-2012 17:30 1008.9 8.6 4.3 12.6 6.3 30 7.7 0 - - 86.6
28-04-2012 17:29 1008.9 8.5 4.2 12.6 6.3 20 7.7 0 - - 86.6
28-04-2012 17:20 1008.6 12.4 6.2 16.4 8.2 20 7.7 0 - - 86.2
28-04-2012 17:10 1009 12.4 6.2 17.2 8.6 20 7.8 0 - - 86
28-04-2012 17:09 1008.9 12.5 6.3 17.2 8.6 20 7.8 0 - - 86
28-04-2012 17:00 1009 11.6 5.8 14.1 7.1 20 7.8 0 - - 86.7
28-04-2012 16:59 1009.2 11.4 5.7 14.1 7.1 20 7.8 0 - - 86.7
28-04-2012 16:50 1009.1 13.8 6.9 17.2 8.6 30 7.9 0 - - 85.9
28-04-2012 16:49 1009.2 14.1 7.1 17.2 8.6 30 7.9 0 - - 85.9
28-04-2012 16:40 1009.6 10.3 5.1 12.8 6.4 30 8 0 - - 86.4
28-04-2012 16:39 1009.5 10.6 5.3 12.8 6.4 30 8 0 - - 86.4
28-04-2012 16:30 1009.6 10.2 5.1 12.7 6.4 30 8 0 - - 86.4
28-04-2012 16:29 1009.6 10.1 5.1 12.7 6.4 20 8 0 - - 86.4
28-04-2012 16:20 1009.6 7 3.5 10.9 5.5 30 8.1 0 - - 85.8
28-04-2012 16:19 1009.7 6.4 3.2 10.9 5.5 30 8.1 0 - - 85.8
28-04-2012 16:10 1009.6 11.1 5.5 14.9 7.5 20 8.1 0 - - 85.5
28-04-2012 16:09 1009.5 11.2 5.6 14.9 7.5 20 8.1 0 - - 85.5
28-04-2012 16:00 1009.7 8.4 4.2 10.3 5.2 20 8.2 0 - - 85.4
28-04-2012 15:59 1009.7 8.3 4.2 10.3 5.2 20 8.2 0 - - 85.4
28-04-2012 15:50 1009.9 13 6.5 17.8 8.9 10 8.2 0 - - 85.5
28-04-2012 15:49 1009.7 12.3 6.1 17 8.5 20 8.2 0 - - 85.7
28-04-2012 15:40 1010.4 10.1 5 11.4 5.7 20 8.2 0 - - 85.5
28-04-2012 15:39 1010.4 10.5 5.2 11.4 5.7 20 8.2 0 - - 85.5
28-04-2012 15:30 1010.7 3.3 1.6 8.7 4.4 40 8.3 0 - - 85.2
28-04-2012 15:29 1010.7 2.7 1.4 8.7 4.4 30 8.3 0 - - 85.1
28-04-2012 15:20 1010.7 11.3 5.7 12.1 6.1 30 8.3 0 - - 84.4
28-04-2012 15:19 1010.7 12.1 6.1 12.1 6.1 30 8.3 0 - - 84.4
28-04-2012 15:10 1010.7 5.9 3 9.3 4.7 10 8.4 0 - - 83.9
28-04-2012 15:09 1010.8 6.1 3.1 9.3 4.7 50 8.4 0 - - 83.9
28-04-2012 15:00 1010.8 17.1 8.6 8.3 4.1 10 8.5 0 - - 82.6
28-04-2012 14:59 1010.9 16.4 8.2 8.3 4.1 20 8.5 0 - - 82.6
28-04-2012 14:50 1011.1 4 2 9.7 4.8 20 8.7 0 - - 81.7
28-04-2012 14:49 1011.1 9.7 4.8 15.2 7.6 20 8.7 0 - - 81.7
28-04-2012 14:40 1011.2 10.4 5.2 18.6 9.3 20 8.8 0 - - 81.1
28-04-2012 14:39 1011.2 10.4 5.2 18.6 9.3 20 8.8 0 - - 81
28-04-2012 14:30 1011.2 10.4 5.2 17 8.5 30 8.8 0 - - 80.4
28-04-2012 14:29 1011.3 10.4 5.2 17 8.5 30 8.8 0 - - 80.4
28-04-2012 14:20 1011.1 10.2 5.1 18.2 9.1 30 8.7 0 - - 82.7
28-04-2012 14:19 1011.2 10.2 5.1 18.2 9.1 30 8.7 0 - - 82.8
28-04-2012 14:10 1011.1 10.1 5 16.6 8.3 20 8.7 0 - - 83.1
28-04-2012 14:09 1011.2 10.1 5 16.6 8.3 20 8.7 0 - - 83
28-04-2012 14:00 1011.1 10.2 5.1 14.7 7.4 20 8.8 0 - - 82.2
28-04-2012 13:59 1011.2 10.2 5.1 14.7 7.4 20 8.8 0 - - 82.2
28-04-2012 13:50 1011.1 10.4 5.2 17 8.5 30 9 0 - - 80.6
28-04-2012 13:49 1011.1 10.4 5.2 17 8.5 20 9 0 - - 80.5
28-04-2012 13:40 1010.7 10.7 5.4 17.7 8.9 20 9 0 - - 78.3
28-04-2012 13:39 1010.8 10.7 5.4 17.7 8.9 20 9 0 - - 78.3
28-04-2012 13:30 1011.1 10 5 17.4 8.7 20 9.1 0 - - 77.9
28-04-2012 13:29 1010.9 9.9 5 17.4 8.7 20 9.1 0 - - 77.9
28-04-2012 13:20 1011.2 7.9 3.9 11.8 5.9 30 9.2 0 - - 77.2
28-04-2012 13:19 1011.3 7.9 3.9 11.8 5.9 30 9.2 0 - - 77.2
28-04-2012 13:10 1011.4 9.2 4.6 17.2 8.6 30 9.1 0 - - 77
28-04-2012 13:09 1011.3 9.2 4.6 17.2 8.6 30 9.2 0 - - 77
28-04-2012 13:00 1011.5 9.7 4.9 15 7.5 20 9.2 0 - - 76.4
28-04-2012 12:59 1011.5 9.7 4.9 15 7.5 20 9.2 0 - - 76.3
28-04-2012 12:50 1011.4 9.6 4.8 16.1 8.1 20 9.2 0 - - 76.1
28-04-2012 12:49 1011.3 9.6 4.8 16.1 8.1 20 9.2 0 - - 76.1
28-04-2012 12:40 1011.4 10.1 5.1 19.5 9.7 20 9.2 0 - - 75.2
28-04-2012 12:39 1011.4 10.1 5.1 19.5 9.7 20 9.2 0 - - 75.3
28-04-2012 12:30 1011.6 9 4.5 15.3 7.7 20 9.3 0 - - 75.5
28-04-2012 12:29 1011.6 9 4.5 15.3 7.7 20 9.3 0 - - 75.8
28-04-2012 12:20 1011.6 9.5 4.8 16 8 20 9.3 0 - - 76
28-04-2012 12:19 1011.6 9.5 4.7 16 8 20 9.3 0 - - 75.9
28-04-2012 12:10 1011.6 8.3 4.2 15.3 7.7 20 9.3 0 - - 78.2
28-04-2012 12:09 1011.6 8.3 4.2 15.3 7.7 20 9.3 0 - - 78.2
28-04-2012 12:00 1011.8 7.6 3.8 12.4 6.2 20 9.3 0 - - 79.7
28-04-2012 11:59 1011.8 7.6 3.8 12.4 6.2 20 9.3 0 - - 79.7
28-04-2012 11:50 1012.2 7.5 3.7 12.3 6.2 20 9.3 0 - - 81.4
28-04-2012 11:49 1012.2 7.5 3.7 12.3 6.2 20 9.3 0 - - 81.4
28-04-2012 11:40 1012.2 5.9 3 10 5 20 9.4 0 - - 81.5
28-04-2012 11:39 1012.2 5.9 2.9 10 5 20 9.5 0 - - 81.5
28-04-2012 11:30 1012.3 6.4 3.2 10.2 5.1 20 9.4 0 - - 81.8
28-04-2012 11:29 1012.2 6.4 3.2 10.2 5.1 20 9.4 0 - - 81.8
28-04-2012 11:20 1012.2 5.9 3 13.1 6.6 10 9.4 0 - - 81.4
28-04-2012 11:19 1012.2 5.9 3 13.1 6.6 10 9.4 0 - - 81.4
28-04-2012 11:10 1012.3 8 4 14 7 10 9.4 0 - - 80.5
28-04-2012 11:09 1012.2 8 4 14 7 10 9.5 0 - - 80.5
28-04-2012 11:00 1012.2 6.9 3.4 12.2 6.1 10 9.5 0 - - 81.1
28-04-2012 10:59 1012.3 6.9 3.4 12.2 6.1 10 9.5 0 - - 81.1